Terminal Aerodrome Forecast
Issued by NWS Amarillo, TX

Home | Current Version | Previous Version | Text Only | Print | Product List | Glossary On
Versions: 1 2 3 4 5 6 7 8 9 10 11 12 13
879
FTUS44 KAMA 191124
TAFAMA
TAF
KAMA 191124Z 1912/2012 17013KT P6SM BKN300
     FM191800 17018G28KT P6SM BKN300
     FM200100 17017KT P6SM BKN100 OVC300=

USA.gov is the U.S. government's official web portal to all federal, state and local government web resources and services.